sensor_id;sensor_type;location;lat;lon;timestamp;P1;durP1;ratioP1;P2;durP2;ratioP2
2546;SDS011;1283;47.982;7.834;2024-03-23T00:53:32;12.68;;;2.28;;
2546;SDS011;1283;47.982;7.834;2024-03-23T00:55:59;3.22;;;2.10;;
2546;SDS011;1283;47.982;7.834;2024-03-23T00:58:25;4.70;;;2.10;;
2546;SDS011;1283;47.982;7.834;2024-03-23T01:00:51;2.78;;;1.77;;
2546;SDS011;1283;47.982;7.834;2024-03-23T01:03:17;2.78;;;1.70;;
2546;SDS011;1283;47.982;7.834;2024-03-23T01:05:43;5.07;;;1.90;;
2546;SDS011;1283;47.982;7.834;2024-03-23T01:08:09;2.97;;;1.77;;
2546;SDS011;1283;47.982;7.834;2024-03-23T01:10:36;6.80;;;1.83;;
2546;SDS011;1283;47.982;7.834;2024-03-23T01:13:02;7.68;;;2.13;;
2546;SDS011;1283;47.982;7.834;2024-03-23T01:15:28;4.05;;;2.03;;
2546;SDS011;1283;47.982;7.834;2024-03-23T01:17:54;4.53;;;1.83;;
2546;SDS011;1283;47.982;7.834;2024-03-23T01:20:20;5.30;;;1.75;;
2546;SDS011;1283;47.982;7.834;2024-03-23T01:22:46;7.32;;;2.00;;
2546;SDS011;1283;47.982;7.834;2024-03-23T01:25:12;4.70;;;1.98;;
2546;SDS011;1283;47.982;7.834;2024-03-23T01:27:39;7.68;;;1.92;;
2546;SDS011;1283;47.982;7.834;2024-03-23T01:30:06;4.95;;;2.08;;
2546;SDS011;1283;47.982;7.834;2024-03-23T01:32:32;5.53;;;1.77;;
2546;SDS011;1283;47.982;7.834;2024-03-23T01:34:59;5.03;;;1.85;;
2546;SDS011;1283;47.982;7.834;2024-03-23T01:37:24;4.03;;;1.70;;
2546;SDS011;1283;47.982;7.834;2024-03-23T01:39:50;2.08;;;1.70;;
2546;SDS011;1283;47.982;7.834;2024-03-23T01:42:16;3.15;;;1.83;;
2546;SDS011;1283;47.982;7.834;2024-03-23T01:44:44;5.63;;;2.03;;
2546;SDS011;1283;47.982;7.834;2024-03-23T01:47:09;11.75;;;2.17;;
2546;SDS011;1283;47.982;7.834;2024-03-23T01:49:35;5.05;;;2.00;;
2546;SDS011;1283;47.982;7.834;2024-03-23T01:52:01;3.80;;;1.90;;
2546;SDS011;1283;47.982;7.834;2024-03-23T01:54:28;3.17;;;2.17;;
2546;SDS011;1283;47.982;7.834;2024-03-23T01:56:54;3.40;;;1.90;;
2546;SDS011;1283;47.982;7.834;2024-03-23T01:59:20;9.95;;;2.40;;
2546;SDS011;1283;47.982;7.834;2024-03-23T02:01:47;4.40;;;2.22;;
2546;SDS011;1283;47.982;7.834;2024-03-23T02:04:14;2.88;;;1.73;;
2546;SDS011;1283;47.982;7.834;2024-03-23T02:06:39;3.78;;;1.88;;
2546;SDS011;1283;47.982;7.834;2024-03-23T02:09:05;6.40;;;2.42;;
2546;SDS011;1283;47.982;7.834;2024-03-23T02:11:31;3.47;;;1.80;;
2546;SDS011;1283;47.982;7.834;2024-03-23T02:16:23;5.50;;;2.10;;
2546;SDS011;1283;47.982;7.834;2024-03-23T02:18:51;6.07;;;2.13;;
2546;SDS011;1283;47.982;7.834;2024-03-23T02:21:16;6.95;;;2.92;;
2546;SDS011;1283;47.982;7.834;2024-03-23T02:23:44;3.53;;;1.92;;
2546;SDS011;1283;47.982;7.834;2024-03-23T02:26:09;4.10;;;2.03;;
2546;SDS011;1283;47.982;7.834;2024-03-23T02:28:36;5.18;;;2.22;;
2546;SDS011;1283;47.982;7.834;2024-03-23T02:31:01;4.38;;;2.42;;
2546;SDS011;1283;47.982;7.834;2024-03-23T02:33:29;4.07;;;2.30;;
2546;SDS011;1283;47.982;7.834;2024-03-23T02:35:55;6.60;;;2.55;;
2546;SDS011;1283;47.982;7.834;2024-03-23T02:38:22;3.42;;;2.15;;
2546;SDS011;1283;47.982;7.834;2024-03-23T02:40:49;9.30;;;2.08;;
2546;SDS011;1283;47.982;7.834;2024-03-23T02:43:15;9.30;;;2.13;;
2546;SDS011;1283;47.982;7.834;2024-03-23T02:45:41;4.45;;;2.10;;
2546;SDS011;1283;47.982;7.834;2024-03-23T02:48:07;7.70;;;2.15;;
2546;SDS011;1283;47.982;7.834;2024-03-23T02:50:33;7.00;;;1.90;;
2546;SDS011;1283;47.982;7.834;2024-03-23T02:52:59;4.93;;;2.25;;
2546;SDS011;1283;47.982;7.834;2024-03-23T02:55:24;7.75;;;2.22;;
2546;SDS011;1283;47.982;7.834;2024-03-23T02:57:52;6.63;;;2.33;;
2546;SDS011;1283;47.982;7.834;2024-03-23T03:00:18;3.92;;;1.80;;
2546;SDS011;1283;47.982;7.834;2024-03-23T03:02:44;6.22;;;2.35;;
2546;SDS011;1283;47.982;7.834;2024-03-23T03:05:10;6.03;;;2.05;;
2546;SDS011;1283;47.982;7.834;2024-03-23T03:07:37;6.07;;;2.35;;
2546;SDS011;1283;47.982;7.834;2024-03-23T03:10:04;4.60;;;2.15;;
2546;SDS011;1283;47.982;7.834;2024-03-23T03:12:33;8.93;;;2.30;;
2546;SDS011;1283;47.982;7.834;2024-03-23T03:15:00;3.15;;;2.20;;
2546;SDS011;1283;47.982;7.834;2024-03-23T03:17:28;7.50;;;2.10;;
2546;SDS011;1283;47.982;7.834;2024-03-23T03:19:53;5.60;;;2.20;;
2546;SDS011;1283;47.982;7.834;2024-03-23T03:22:20;5.90;;;2.53;;
2546;SDS011;1283;47.982;7.834;2024-03-23T03:24:46;5.18;;;2.30;;
2546;SDS011;1283;47.982;7.834;2024-03-23T03:27:12;4.00;;;2.42;;
2546;SDS011;1283;47.982;7.834;2024-03-23T03:29:38;4.40;;;2.03;;
2546;SDS011;1283;47.982;7.834;2024-03-23T03:32:06;6.07;;;2.33;;
2546;SDS011;1283;47.982;7.834;2024-03-23T03:34:32;4.82;;;2.35;;
2546;SDS011;1283;47.982;7.834;2024-03-23T03:36:58;6.68;;;2.65;;
2546;SDS011;1283;47.982;7.834;2024-03-23T03:39:24;5.25;;;2.30;;
2546;SDS011;1283;47.982;7.834;2024-03-23T03:41:51;5.88;;;2.30;;
2546;SDS011;1283;47.982;7.834;2024-03-23T03:44:16;5.55;;;2.67;;
2546;SDS011;1283;47.982;7.834;2024-03-23T03:46:43;4.80;;;2.42;;
2546;SDS011;1283;47.982;7.834;2024-03-23T03:49:10;2.55;;;2.03;;
2546;SDS011;1283;47.982;7.834;2024-03-23T03:51:36;4.65;;;2.35;;
2546;SDS011;1283;47.982;7.834;2024-03-23T03:54:02;4.60;;;2.60;;
2546;SDS011;1283;47.982;7.834;2024-03-23T03:56:28;7.20;;;2.60;;
2546;SDS011;1283;47.982;7.834;2024-03-23T03:58:54;6.10;;;2.70;;
2546;SDS011;1283;47.982;7.834;2024-03-23T04:01:20;12.68;;;2.58;;
2546;SDS011;1283;47.982;7.834;2024-03-23T04:03:45;5.75;;;2.97;;
2546;SDS011;1283;47.982;7.834;2024-03-23T04:06:15;4.38;;;2.55;;
2546;SDS011;1283;47.982;7.834;2024-03-23T04:08:44;8.65;;;2.83;;
2546;SDS011;1283;47.982;7.834;2024-03-23T04:11:10;17.83;;;3.15;;
2546;SDS011;1283;47.982;7.834;2024-03-23T04:13:35;6.07;;;2.58;;
2546;SDS011;1283;47.982;7.834;2024-03-23T04:16:02;8.40;;;2.80;;
2546;SDS011;1283;47.982;7.834;2024-03-23T04:18:28;5.60;;;2.88;;
2546;SDS011;1283;47.982;7.834;2024-03-23T04:20:55;5.05;;;3.13;;
2546;SDS011;1283;47.982;7.834;2024-03-23T04:23:21;4.57;;;2.90;;
2546;SDS011;1283;47.982;7.834;2024-03-23T04:25:48;7.00;;;3.35;;
2546;SDS011;1283;47.982;7.834;2024-03-23T04:28:13;4.77;;;2.70;;
2546;SDS011;1283;47.982;7.834;2024-03-23T04:30:40;7.07;;;2.80;;
2546;SDS011;1283;47.982;7.834;2024-03-23T04:33:05;8.07;;;2.95;;
2546;SDS011;1283;47.982;7.834;2024-03-23T04:35:32;9.23;;;3.00;;
2546;SDS011;1283;47.982;7.834;2024-03-23T04:37:57;8.65;;;3.20;;
2546;SDS011;1283;47.982;7.834;2024-03-23T04:40:26;5.28;;;3.45;;
2546;SDS011;1283;47.982;7.834;2024-03-23T04:42:52;6.97;;;3.05;;
2546;SDS011;1283;47.982;7.834;2024-03-23T04:45:18;9.60;;;4.07;;
2546;SDS011;1283;47.982;7.834;2024-03-23T04:47:45;7.70;;;3.55;;
2546;SDS011;1283;47.982;7.834;2024-03-23T04:50:11;6.45;;;3.53;;
2546;SDS011;1283;47.982;7.834;2024-03-23T04:52:38;7.30;;;3.15;;
2546;SDS011;1283;47.982;7.834;2024-03-23T04:55:05;7.50;;;3.15;;
2546;SDS011;1283;47.982;7.834;2024-03-23T04:57:33;9.48;;;4.15;;
2546;SDS011;1283;47.982;7.834;2024-03-23T04:59:58;8.05;;;4.18;;
2546;SDS011;1283;47.982;7.834;2024-03-23T05:02:24;6.53;;;3.83;;
2546;SDS011;1283;47.982;7.834;2024-03-23T05:04:50;8.27;;;3.70;;
2546;SDS011;1283;47.982;7.834;2024-03-23T05:07:17;6.22;;;4.07;;
2546;SDS011;1283;47.982;7.834;2024-03-23T05:09:43;7.35;;;4.13;;
2546;SDS011;1283;47.982;7.834;2024-03-23T05:12:08;5.30;;;3.67;;
2546;SDS011;1283;47.982;7.834;2024-03-23T05:14:36;7.55;;;4.15;;
2546;SDS011;1283;47.982;7.834;2024-03-23T05:17:02;13.68;;;5.28;;
2546;SDS011;1283;47.982;7.834;2024-03-23T05:19:29;7.45;;;3.92;;
2546;SDS011;1283;47.982;7.834;2024-03-23T05:21:55;9.88;;;3.88;;
2546;SDS011;1283;47.982;7.834;2024-03-23T05:24:21;6.22;;;4.32;;
2546;SDS011;1283;47.982;7.834;2024-03-23T05:26:46;11.00;;;4.35;;
2546;SDS011;1283;47.982;7.834;2024-03-23T05:29:13;10.38;;;3.90;;
2546;SDS011;1283;47.982;7.834;2024-03-23T05:31:40;7.80;;;4.57;;
2546;SDS011;1283;47.982;7.834;2024-03-23T05:34:07;6.38;;;4.53;;
2546;SDS011;1283;47.982;7.834;2024-03-23T05:39:01;8.10;;;4.20;;
2546;SDS011;1283;47.982;7.834;2024-03-23T05:41:26;9.93;;;4.88;;
2546;SDS011;1283;47.982;7.834;2024-03-23T05:43:53;11.68;;;4.25;;
2546;SDS011;1283;47.982;7.834;2024-03-23T05:46:18;7.65;;;4.20;;
2546;SDS011;1283;47.982;7.834;2024-03-23T05:48:46;9.13;;;4.68;;
2546;SDS011;1283;47.982;7.834;2024-03-23T05:51:11;10.63;;;4.65;;
2546;SDS011;1283;47.982;7.834;2024-03-23T05:53:38;10.73;;;5.20;;
2546;SDS011;1283;47.982;7.834;2024-03-23T05:56:04;5.55;;;3.95;;
2546;SDS011;1283;47.982;7.834;2024-03-23T05:58:31;8.07;;;4.95;;
2546;SDS011;1283;47.982;7.834;2024-03-23T06:00:57;6.57;;;3.83;;
2546;SDS011;1283;47.982;7.834;2024-03-23T06:03:24;6.82;;;3.95;;
2546;SDS011;1283;47.982;7.834;2024-03-23T06:05:51;7.88;;;4.03;;
2546;SDS011;1283;47.982;7.834;2024-03-23T06:08:18;7.15;;;4.43;;
2546;SDS011;1283;47.982;7.834;2024-03-23T06:10:44;6.78;;;4.40;;
2546;SDS011;1283;47.982;7.834;2024-03-23T06:13:11;7.18;;;4.05;;
2546;SDS011;1283;47.982;7.834;2024-03-23T06:15:36;6.65;;;3.17;;
2546;SDS011;1283;47.982;7.834;2024-03-23T06:18:03;4.05;;;1.90;;
2546;SDS011;1283;47.982;7.834;2024-03-23T06:22:57;3.95;;;2.00;;
2546;SDS011;1283;47.982;7.834;2024-03-23T06:25:22;3.58;;;2.03;;
2546;SDS011;1283;47.982;7.834;2024-03-23T06:27:49;3.80;;;2.38;;
2546;SDS011;1283;47.982;7.834;2024-03-23T06:30:14;3.28;;;1.77;;
2546;SDS011;1283;47.982;7.834;2024-03-23T06:32:41;2.65;;;1.40;;
2546;SDS011;1283;47.982;7.834;2024-03-23T06:35:07;2.30;;;1.25;;
2546;SDS011;1283;47.982;7.834;2024-03-23T06:37:35;2.13;;;1.25;;
2546;SDS011;1283;47.982;7.834;2024-03-23T06:40:02;2.92;;;0.73;;
2546;SDS011;1283;47.982;7.834;2024-03-23T06:42:33;1.23;;;0.52;;
2546;SDS011;1283;47.982;7.834;2024-03-23T06:44:58;0.50;;;0.30;;
2546;SDS011;1283;47.982;7.834;2024-03-23T06:47:25;0.55;;;0.40;;
2546;SDS011;1283;47.982;7.834;2024-03-23T06:49:50;1.33;;;0.50;;
2546;SDS011;1283;47.982;7.834;2024-03-23T06:52:17;0.80;;;0.30;;
2546;SDS011;1283;47.982;7.834;2024-03-23T06:54:42;1.35;;;0.40;;
2546;SDS011;1283;47.982;7.834;2024-03-23T06:57:11;0.88;;;0.47;;
2546;SDS011;1283;47.982;7.834;2024-03-23T06:59:37;0.50;;;0.30;;
2546;SDS011;1283;47.982;7.834;2024-03-23T07:02:03;2.70;;;0.50;;
2546;SDS011;1283;47.982;7.834;2024-03-23T07:04:29;0.28;;;0.28;;
2546;SDS011;1283;47.982;7.834;2024-03-23T07:06:55;0.30;;;0.30;;
2546;SDS011;1283;47.982;7.834;2024-03-23T07:09:21;1.25;;;0.35;;
2546;SDS011;1283;47.982;7.834;2024-03-23T07:11:51;0.40;;;0.30;;
2546;SDS011;1283;47.982;7.834;2024-03-23T07:14:17;2.35;;;0.20;;
2546;SDS011;1283;47.982;7.834;2024-03-23T07:16:44;0.75;;;0.35;;
2546;SDS011;1283;47.982;7.834;2024-03-23T07:19:09;0.80;;;0.40;;
2546;SDS011;1283;47.982;7.834;2024-03-23T07:21:36;0.40;;;0.40;;
2546;SDS011;1283;47.982;7.834;2024-03-23T07:24:01;0.60;;;0.32;;
2546;SDS011;1283;47.982;7.834;2024-03-23T07:26:28;5.78;;;0.22;;
2546;SDS011;1283;47.982;7.834;2024-03-23T07:28:53;1.55;;;0.25;;
2546;SDS011;1283;47.982;7.834;2024-03-23T07:31:21;0.22;;;0.20;;
2546;SDS011;1283;47.982;7.834;2024-03-23T07:33:48;1.05;;;0.30;;
2546;SDS011;1283;47.982;7.834;2024-03-23T07:36:16;1.92;;;0.40;;
2546;SDS011;1283;47.982;7.834;2024-03-23T07:38:41;0.43;;;0.30;;
2546;SDS011;1283;47.982;7.834;2024-03-23T07:41:10;0.38;;;0.30;;
2546;SDS011;1283;47.982;7.834;2024-03-23T07:43:36;2.00;;;0.55;;
2546;SDS011;1283;47.982;7.834;2024-03-23T07:46:03;1.88;;;0.70;;
2546;SDS011;1283;47.982;7.834;2024-03-23T07:48:30;0.40;;;0.30;;
2546;SDS011;1283;47.982;7.834;2024-03-23T07:51:00;2.95;;;0.50;;
2546;SDS011;1283;47.982;7.834;2024-03-23T07:53:26;0.43;;;0.40;;
2546;SDS011;1283;47.982;7.834;2024-03-23T07:55:56;0.77;;;0.30;;
2546;SDS011;1283;47.982;7.834;2024-03-23T07:58:23;0.88;;;0.30;;
2546;SDS011;1283;47.982;7.834;2024-03-23T08:00:49;0.93;;;0.35;;
2546;SDS011;1283;47.982;7.834;2024-03-23T08:03:15;4.82;;;0.63;;
2546;SDS011;1283;47.982;7.834;2024-03-23T08:05:43;1.52;;;0.55;;
2546;SDS011;1283;47.982;7.834;2024-03-23T08:08:08;2.80;;;0.60;;
2546;SDS011;1283;47.982;7.834;2024-03-23T08:10:34;3.40;;;0.60;;
2546;SDS011;1283;47.982;7.834;2024-03-23T08:13:00;1.17;;;0.55;;
2546;SDS011;1283;47.982;7.834;2024-03-23T08:15:26;2.95;;;0.85;;
2546;SDS011;1283;47.982;7.834;2024-03-23T08:17:52;6.65;;;0.85;;
2546;SDS011;1283;47.982;7.834;2024-03-23T08:20:18;6.78;;;1.23;;
2546;SDS011;1283;47.982;7.834;2024-03-23T08:22:45;3.30;;;0.70;;
2546;SDS011;1283;47.982;7.834;2024-03-23T08:25:11;2.53;;;1.02;;
2546;SDS011;1283;47.982;7.834;2024-03-23T08:27:37;3.08;;;0.98;;
2546;SDS011;1283;47.982;7.834;2024-03-23T08:30:04;2.95;;;1.08;;
2546;SDS011;1283;47.982;7.834;2024-03-23T08:32:30;3.40;;;1.13;;
2546;SDS011;1283;47.982;7.834;2024-03-23T08:34:56;5.90;;;1.30;;
2546;SDS011;1283;47.982;7.834;2024-03-23T08:37:22;8.55;;;1.30;;
2546;SDS011;1283;47.982;7.834;2024-03-23T08:39:51;3.47;;;1.23;;
2546;SDS011;1283;47.982;7.834;2024-03-23T08:42:18;7.90;;;1.55;;
2546;SDS011;1283;47.982;7.834;2024-03-23T08:44:44;8.40;;;1.75;;
2546;SDS011;1283;47.982;7.834;2024-03-23T08:47:11;10.48;;;2.35;;
2546;SDS011;1283;47.982;7.834;2024-03-23T08:49:38;6.35;;;1.73;;
2546;SDS011;1283;47.982;7.834;2024-03-23T08:52:03;5.78;;;1.80;;
2546;SDS011;1283;47.982;7.834;2024-03-23T08:54:30;5.47;;;1.95;;
2546;SDS011;1283;47.982;7.834;2024-03-23T08:56:57;5.00;;;1.90;;
2546;SDS011;1283;47.982;7.834;2024-03-23T08:59:24;6.53;;;1.83;;
2546;SDS011;1283;47.982;7.834;2024-03-23T09:01:49;7.13;;;2.17;;
2546;SDS011;1283;47.982;7.834;2024-03-23T09:04:16;5.93;;;2.30;;
2546;SDS011;1283;47.982;7.834;2024-03-23T09:06:42;3.22;;;1.77;;
2546;SDS011;1283;47.982;7.834;2024-03-23T09:09:08;5.32;;;1.83;;
2546;SDS011;1283;47.982;7.834;2024-03-23T09:11:34;5.07;;;2.30;;
2546;SDS011;1283;47.982;7.834;2024-03-23T09:14:02;8.65;;;2.20;;
2546;SDS011;1283;47.982;7.834;2024-03-23T09:16:27;5.88;;;1.83;;
2546;SDS011;1283;47.982;7.834;2024-03-23T09:18:53;7.40;;;2.03;;
2546;SDS011;1283;47.982;7.834;2024-03-23T09:21:19;8.65;;;2.10;;
2546;SDS011;1283;47.982;7.834;2024-03-23T09:23:45;3.88;;;1.85;;
2546;SDS011;1283;47.982;7.834;2024-03-23T09:26:11;4.95;;;1.70;;
2546;SDS011;1283;47.982;7.834;2024-03-23T09:28:37;8.90;;;1.92;;
2546;SDS011;1283;47.982;7.834;2024-03-23T09:31:04;6.93;;;1.70;;
2546;SDS011;1283;47.982;7.834;2024-03-23T09:33:32;5.13;;;1.55;;
2546;SDS011;1283;47.982;7.834;2024-03-23T09:36:02;6.32;;;1.65;;
2546;SDS011;1283;47.982;7.834;2024-03-23T09:38:28;4.70;;;1.23;;
2546;SDS011;1283;47.982;7.834;2024-03-23T09:40:56;6.95;;;2.05;;
2546;SDS011;1283;47.982;7.834;2024-03-23T09:43:21;4.13;;;1.60;;
2546;SDS011;1283;47.982;7.834;2024-03-23T09:45:48;7.22;;;1.88;;
2546;SDS011;1283;47.982;7.834;2024-03-23T09:48:15;4.03;;;1.50;;
2546;SDS011;1283;47.982;7.834;2024-03-23T09:50:42;8.98;;;2.03;;
2546;SDS011;1283;47.982;7.834;2024-03-23T09:53:09;5.60;;;1.52;;
2546;SDS011;1283;47.982;7.834;2024-03-23T09:55:36;4.30;;;1.52;;
2546;SDS011;1283;47.982;7.834;2024-03-23T09:58:02;6.03;;;1.45;;
2546;SDS011;1283;47.982;7.834;2024-03-23T10:00:30;2.00;;;0.90;;
2546;SDS011;1283;47.982;7.834;2024-03-23T10:02:55;6.18;;;1.80;;
2546;SDS011;1283;47.982;7.834;2024-03-23T10:05:24;7.35;;;1.83;;
2546;SDS011;1283;47.982;7.834;2024-03-23T10:07:50;3.60;;;1.40;;
2546;SDS011;1283;47.982;7.834;2024-03-23T10:10:16;4.63;;;1.50;;
2546;SDS011;1283;47.982;7.834;2024-03-23T10:12:43;6.15;;;1.55;;
2546;SDS011;1283;47.982;7.834;2024-03-23T10:15:14;8.57;;;1.58;;
2546;SDS011;1283;47.982;7.834;2024-03-23T10:17:41;4.35;;;1.65;;
2546;SDS011;1283;47.982;7.834;2024-03-23T10:20:09;7.68;;;1.45;;
2546;SDS011;1283;47.982;7.834;2024-03-23T10:22:37;4.65;;;1.33;;
2546;SDS011;1283;47.982;7.834;2024-03-23T10:25:07;8.10;;;1.42;;
2546;SDS011;1283;47.982;7.834;2024-03-23T10:27:33;11.55;;;2.35;;
2546;SDS011;1283;47.982;7.834;2024-03-23T10:30:08;4.93;;;1.20;;
2546;SDS011;1283;47.982;7.834;2024-03-23T10:32:34;9.15;;;1.45;;
2546;SDS011;1283;47.982;7.834;2024-03-23T10:35:13;9.25;;;1.63;;
2546;SDS011;1283;47.982;7.834;2024-03-23T10:37:40;6.25;;;1.52;;
2546;SDS011;1283;47.982;7.834;2024-03-23T10:40:08;5.97;;;1.70;;
2546;SDS011;1283;47.982;7.834;2024-03-23T10:42:35;10.15;;;1.58;;
2546;SDS011;1283;47.982;7.834;2024-03-23T10:45:03;1.85;;;1.00;;
2546;SDS011;1283;47.982;7.834;2024-03-23T10:47:29;6.85;;;1.30;;
2546;SDS011;1283;47.982;7.834;2024-03-23T10:49:56;2.45;;;1.02;;
2546;SDS011;1283;47.982;7.834;2024-03-23T10:52:22;4.20;;;0.93;;
2546;SDS011;1283;47.982;7.834;2024-03-23T10:54:50;3.13;;;0.85;;
2546;SDS011;1283;47.982;7.834;2024-03-23T10:57:17;2.67;;;1.00;;
2546;SDS011;1283;47.982;7.834;2024-03-23T10:59:44;2.13;;;0.80;;
2546;SDS011;1283;47.982;7.834;2024-03-23T11:04:44;6.85;;;1.95;;
2546;SDS011;1283;47.982;7.834;2024-03-23T11:09:55;3.63;;;0.90;;
2546;SDS011;1283;47.982;7.834;2024-03-23T11:12:25;6.68;;;1.40;;
2546;SDS011;1283;47.982;7.834;2024-03-23T11:15:01;6.88;;;1.42;;
2546;SDS011;1283;47.982;7.834;2024-03-23T11:17:28;3.47;;;1.05;;
2546;SDS011;1283;47.982;7.834;2024-03-23T11:19:54;4.47;;;1.23;;
2546;SDS011;1283;47.982;7.834;2024-03-23T11:22:38;3.80;;;1.30;;
2546;SDS011;1283;47.982;7.834;2024-03-23T11:25:15;2.35;;;1.20;;
2546;SDS011;1283;47.982;7.834;2024-03-23T11:27:46;3.92;;;1.38;;
2546;SDS011;1283;47.982;7.834;2024-03-23T11:30:13;6.25;;;1.17;;
2546;SDS011;1283;47.982;7.834;2024-03-23T11:32:40;3.75;;;1.35;;
2546;SDS011;1283;47.982;7.834;2024-03-23T11:37:35;3.35;;;0.88;;
2546;SDS011;1283;47.982;7.834;2024-03-23T11:40:00;1.42;;;0.70;;
2546;SDS011;1283;47.982;7.834;2024-03-23T11:42:28;2.45;;;0.82;;
2546;SDS011;1283;47.982;7.834;2024-03-23T11:44:54;7.63;;;0.90;;
2546;SDS011;1283;47.982;7.834;2024-03-23T11:47:20;4.80;;;1.50;;
2546;SDS011;1283;47.982;7.834;2024-03-23T11:49:48;3.03;;;1.13;;
2546;SDS011;1283;47.982;7.834;2024-03-23T11:52:15;3.42;;;1.13;;
2546;SDS011;1283;47.982;7.834;2024-03-23T11:57:07;1.55;;;0.75;;
2546;SDS011;1283;47.982;7.834;2024-03-23T11:59:35;3.85;;;1.00;;
2546;SDS011;1283;47.982;7.834;2024-03-23T12:02:05;2.92;;;0.68;;
2546;SDS011;1283;47.982;7.834;2024-03-23T12:04:31;2.13;;;0.70;;
2546;SDS011;1283;47.982;7.834;2024-03-23T12:07:11;2.70;;;1.02;;
2546;SDS011;1283;47.982;7.834;2024-03-23T12:09:37;3.78;;;0.90;;
2546;SDS011;1283;47.982;7.834;2024-03-23T12:12:08;3.60;;;1.20;;
2546;SDS011;1283;47.982;7.834;2024-03-23T12:14:35;1.67;;;0.60;;
2546;SDS011;1283;47.982;7.834;2024-03-23T12:17:10;3.58;;;1.00;;
2546;SDS011;1283;47.982;7.834;2024-03-23T12:19:37;4.15;;;1.15;;
2546;SDS011;1283;47.982;7.834;2024-03-23T12:22:04;4.85;;;1.30;;
2546;SDS011;1283;47.982;7.834;2024-03-23T12:24:29;4.20;;;1.50;;
2546;SDS011;1283;47.982;7.834;2024-03-23T12:26:59;5.82;;;1.58;;
2546;SDS011;1283;47.982;7.834;2024-03-23T12:29:26;4.82;;;1.38;;
2546;SDS011;1283;47.982;7.834;2024-03-23T12:31:54;3.95;;;1.58;;
2546;SDS011;1283;47.982;7.834;2024-03-23T12:34:21;5.53;;;1.30;;
2546;SDS011;1283;47.982;7.834;2024-03-23T12:36:47;4.45;;;1.40;;
2546;SDS011;1283;47.982;7.834;2024-03-23T12:39:13;4.05;;;1.27;;
2546;SDS011;1283;47.982;7.834;2024-03-23T12:41:39;9.02;;;1.80;;
2546;SDS011;1283;47.982;7.834;2024-03-23T12:44:04;6.13;;;1.88;;
2546;SDS011;1283;47.982;7.834;2024-03-23T12:46:33;7.32;;;1.25;;
2546;SDS011;1283;47.982;7.834;2024-03-23T12:49:00;7.97;;;1.52;;
2546;SDS011;1283;47.982;7.834;2024-03-23T12:51:26;3.33;;;1.30;;
2546;SDS011;1283;47.982;7.834;2024-03-23T12:53:52;6.03;;;1.45;;
2546;SDS011;1283;47.982;7.834;2024-03-23T12:56:18;3.58;;;1.25;;
2546;SDS011;1283;47.982;7.834;2024-03-23T12:58:44;8.30;;;2.03;;
2546;SDS011;1283;47.982;7.834;2024-03-23T13:01:10;8.20;;;1.45;;
2546;SDS011;1283;47.982;7.834;2024-03-23T13:03:36;6.65;;;1.40;;
2546;SDS011;1283;47.982;7.834;2024-03-23T13:06:04;8.23;;;1.67;;
2546;SDS011;1283;47.982;7.834;2024-03-23T13:08:32;7.82;;;1.95;;
2546;SDS011;1283;47.982;7.834;2024-03-23T13:10:59;7.35;;;1.58;;
2546;SDS011;1283;47.982;7.834;2024-03-23T13:13:24;10.65;;;1.60;;
2546;SDS011;1283;47.982;7.834;2024-03-23T13:15:51;11.00;;;1.90;;
2546;SDS011;1283;47.982;7.834;2024-03-23T13:18:16;9.85;;;1.55;;
2546;SDS011;1283;47.982;7.834;2024-03-23T13:20:43;6.57;;;1.52;;
2546;SDS011;1283;47.982;7.834;2024-03-23T13:23:10;9.90;;;1.70;;
2546;SDS011;1283;47.982;7.834;2024-03-23T13:25:37;5.88;;;1.33;;
2546;SDS011;1283;47.982;7.834;2024-03-23T13:28:02;6.57;;;1.15;;
2546;SDS011;1283;47.982;7.834;2024-03-23T13:30:29;7.50;;;1.33;;
2546;SDS011;1283;47.982;7.834;2024-03-23T13:32:55;4.63;;;1.30;;
2546;SDS011;1283;47.982;7.834;2024-03-23T13:35:21;8.98;;;1.00;;
2546;SDS011;1283;47.982;7.834;2024-03-23T13:37:47;4.68;;;1.02;;
2546;SDS011;1283;47.982;7.834;2024-03-23T13:40:15;5.13;;;1.17;;
2546;SDS011;1283;47.982;7.834;2024-03-23T13:42:41;4.53;;;1.05;;
2546;SDS011;1283;47.982;7.834;2024-03-23T13:45:07;8.55;;;1.17;;
2546;SDS011;1283;47.982;7.834;2024-03-23T13:47:36;9.57;;;1.27;;
2546;SDS011;1283;47.982;7.834;2024-03-23T13:50:03;4.55;;;1.38;;
2546;SDS011;1283;47.982;7.834;2024-03-23T13:52:29;6.25;;;0.98;;
2546;SDS011;1283;47.982;7.834;2024-03-23T13:54:56;5.38;;;1.00;;
2546;SDS011;1283;47.982;7.834;2024-03-23T13:57:23;3.67;;;0.85;;
2546;SDS011;1283;47.982;7.834;2024-03-23T13:59:51;6.10;;;1.02;;
2546;SDS011;1283;47.982;7.834;2024-03-23T14:02:16;4.60;;;1.65;;
2546;SDS011;1283;47.982;7.834;2024-03-23T14:04:43;3.95;;;0.85;;
2546;SDS011;1283;47.982;7.834;2024-03-23T14:07:08;3.30;;;1.10;;
2546;SDS011;1283;47.982;7.834;2024-03-23T14:09:35;3.15;;;0.70;;
2546;SDS011;1283;47.982;7.834;2024-03-23T14:12:01;3.53;;;1.17;;
2546;SDS011;1283;47.982;7.834;2024-03-23T14:14:28;3.22;;;0.90;;
2546;SDS011;1283;47.982;7.834;2024-03-23T14:16:54;4.15;;;0.95;;
2546;SDS011;1283;47.982;7.834;2024-03-23T14:19:20;4.50;;;0.93;;
2546;SDS011;1283;47.982;7.834;2024-03-23T14:21:46;6.65;;;1.05;;
2546;SDS011;1283;47.982;7.834;2024-03-23T14:24:12;1.50;;;0.75;;
2546;SDS011;1283;47.982;7.834;2024-03-23T14:26:38;6.75;;;1.20;;
2546;SDS011;1283;47.982;7.834;2024-03-23T14:29:06;4.95;;;0.93;;
2546;SDS011;1283;47.982;7.834;2024-03-23T14:31:33;4.38;;;1.33;;
2546;SDS011;1283;47.982;7.834;2024-03-23T14:34:00;4.55;;;0.80;;
2546;SDS011;1283;47.982;7.834;2024-03-23T14:36:26;5.70;;;1.05;;
2546;SDS011;1283;47.982;7.834;2024-03-23T14:38:52;5.40;;;1.00;;
2546;SDS011;1283;47.982;7.834;2024-03-23T14:41:18;3.95;;;0.85;;
2546;SDS011;1283;47.982;7.834;2024-03-23T14:43:44;4.22;;;0.80;;
2546;SDS011;1283;47.982;7.834;2024-03-23T14:46:11;4.72;;;0.70;;
2546;SDS011;1283;47.982;7.834;2024-03-23T14:48:41;2.42;;;0.70;;
2546;SDS011;1283;47.982;7.834;2024-03-23T14:51:07;3.80;;;0.68;;
2546;SDS011;1283;47.982;7.834;2024-03-23T14:53:35;5.32;;;0.98;;
2546;SDS011;1283;47.982;7.834;2024-03-23T14:56:01;3.47;;;0.80;;
2546;SDS011;1283;47.982;7.834;2024-03-23T14:58:28;3.80;;;0.75;;
2546;SDS011;1283;47.982;7.834;2024-03-23T15:00:59;3.05;;;0.90;;
2546;SDS011;1283;47.982;7.834;2024-03-23T15:03:26;5.75;;;0.80;;
2546;SDS011;1283;47.982;7.834;2024-03-23T15:05:53;3.72;;;0.85;;
2546;SDS011;1283;47.982;7.834;2024-03-23T15:08:20;6.10;;;0.80;;
2546;SDS011;1283;47.982;7.834;2024-03-23T15:10:46;7.15;;;0.50;;
2546;SDS011;1283;47.982;7.834;2024-03-23T15:13:12;1.55;;;0.60;;
2546;SDS011;1283;47.982;7.834;2024-03-23T15:15:39;3.72;;;0.85;;
2546;SDS011;1283;47.982;7.834;2024-03-23T15:18:08;2.10;;;0.50;;
2546;SDS011;1283;47.982;7.834;2024-03-23T15:20:34;2.20;;;0.60;;
2546;SDS011;1283;47.982;7.834;2024-03-23T15:23:02;4.05;;;0.63;;
2546;SDS011;1283;47.982;7.834;2024-03-23T15:25:28;2.88;;;0.68;;
2546;SDS011;1283;47.982;7.834;2024-03-23T15:27:55;5.00;;;0.82;;
2546;SDS011;1283;47.982;7.834;2024-03-23T15:30:21;9.25;;;1.15;;
2546;SDS011;1283;47.982;7.834;2024-03-23T15:32:47;1.50;;;0.63;;
2546;SDS011;1283;47.982;7.834;2024-03-23T15:35:12;2.25;;;0.70;;
2546;SDS011;1283;47.982;7.834;2024-03-23T15:37:39;3.75;;;0.98;;
2546;SDS011;1283;47.982;7.834;2024-03-23T15:40:07;2.55;;;0.82;;
2546;SDS011;1283;47.982;7.834;2024-03-23T15:42:35;8.43;;;1.08;;
2546;SDS011;1283;47.982;7.834;2024-03-23T15:45:00;4.28;;;0.85;;
2546;SDS011;1283;47.982;7.834;2024-03-23T15:47:28;5.95;;;1.00;;
2546;SDS011;1283;47.982;7.834;2024-03-23T15:49:54;3.47;;;0.85;;
2546;SDS011;1283;47.982;7.834;2024-03-23T15:52:21;1.55;;;0.65;;
2546;SDS011;1283;47.982;7.834;2024-03-23T15:54:46;3.05;;;0.75;;
2546;SDS011;1283;47.982;7.834;2024-03-23T15:57:14;3.10;;;0.60;;
2546;SDS011;1283;47.982;7.834;2024-03-23T15:59:41;4.63;;;0.80;;
2546;SDS011;1283;47.982;7.834;2024-03-23T16:02:07;1.73;;;0.68;;
2546;SDS011;1283;47.982;7.834;2024-03-23T16:04:33;3.83;;;0.90;;
2546;SDS011;1283;47.982;7.834;2024-03-23T16:06:59;2.90;;;0.52;;
2546;SDS011;1283;47.982;7.834;2024-03-23T16:09:26;2.78;;;0.60;;
2546;SDS011;1283;47.982;7.834;2024-03-23T16:11:53;1.13;;;0.50;;
2546;SDS011;1283;47.982;7.834;2024-03-23T16:14:20;1.70;;;0.63;;
2546;SDS011;1283;47.982;7.834;2024-03-23T16:16:47;2.83;;;0.50;;
2546;SDS011;1283;47.982;7.834;2024-03-23T16:19:13;5.95;;;0.80;;
2546;SDS011;1283;47.982;7.834;2024-03-23T16:21:39;1.98;;;0.82;;